createdAt,value
2018-07-20T00:00:00.066Z,19.11
2018-07-20T00:01:31.430Z,19.13
2018-07-20T00:03:03.002Z,18.91
2018-07-20T00:04:34.576Z,18.76
2018-07-20T00:06:06.147Z,18.72
2018-07-20T00:07:37.720Z,18.54
2018-07-20T00:09:09.294Z,18.33
2018-07-20T00:10:40.868Z,18.11
2018-07-20T00:12:12.442Z,17.95
2018-07-20T00:13:44.013Z,17.81
2018-07-20T00:15:15.586Z,17.82
2018-07-20T00:16:47.204Z,17.84
2018-07-20T00:18:18.831Z,17.81
2018-07-20T00:19:50.303Z,17.71
2018-07-20T00:21:21.876Z,17.84
2018-07-20T00:22:53.449Z,17.79
2018-07-20T00:24:25.022Z,17.86
2018-07-20T00:25:56.595Z,17.87
2018-07-20T00:27:28.167Z,17.79
2018-07-20T00:28:59.740Z,17.84
2018-07-20T00:30:31.312Z,17.82
2018-07-20T00:32:02.883Z,17.78
2018-07-20T00:33:34.497Z,17.87
2018-07-20T00:35:06.038Z,17.86
2018-07-20T00:36:37.701Z,17.79
2018-07-20T00:38:09.173Z,17.79
2018-07-20T00:39:40.745Z,17.81
2018-07-20T00:41:12.330Z,17.79
2018-07-20T00:42:43.890Z,17.74
2018-07-20T00:44:15.461Z,17.72
2018-07-20T00:45:47.034Z,17.55
2018-07-20T00:47:18.604Z,17.54
2018-07-20T00:48:50.184Z,17.51
2018-07-20T00:50:21.765Z,17.44
2018-07-20T00:51:53.321Z,17.48
2018-07-20T00:53:24.893Z,17.33
2018-07-20T00:54:57.023Z,17.28
2018-07-20T00:56:28.037Z,17.34
2018-07-20T00:57:59.609Z,17.34
2018-07-20T00:59:31.180Z,17.30
2018-07-20T01:01:02.853Z,17.23
2018-07-20T01:02:34.324Z,17.25
2018-07-20T01:04:05.896Z,17.23
2018-07-20T01:05:37.467Z,17.18
2018-07-20T01:07:09.054Z,17.16
2018-07-20T01:08:40.611Z,17.16
2018-07-20T01:10:12.183Z,17.16
2018-07-20T01:11:43.755Z,17.04
2018-07-20T01:13:15.430Z,17.04
2018-07-20T01:14:46.897Z,16.89
2018-07-20T01:16:18.469Z,16.98
2018-07-20T01:17:50.048Z,17.31
2018-07-20T01:19:21.687Z,17.81
2018-07-20T01:20:53.184Z,18.39
2018-07-20T01:22:24.755Z,19.08
2018-07-20T01:23:56.327Z,19.33
2018-07-20T01:25:27.899Z,19.56
2018-07-20T01:26:59.470Z,19.63
2018-07-20T01:28:31.062Z,19.48
2018-07-20T01:30:02.614Z,19.39
2018-07-20T01:31:34.385Z,19.44
2018-07-20T01:33:05.757Z,19.48
2018-07-20T01:34:37.328Z,19.29
2018-07-20T01:36:08.900Z,19.32
2018-07-20T01:37:40.472Z,19.13
2018-07-20T01:39:12.044Z,19.23
2018-07-20T01:40:43.633Z,19.32
2018-07-20T01:42:15.189Z,19.08
2018-07-20T01:43:46.763Z,18.80
2018-07-20T01:45:18.331Z,18.91
2018-07-20T01:46:49.903Z,18.81
2018-07-20T01:48:21.483Z,19.11
2018-07-20T01:49:53.197Z,18.76
2018-07-20T01:51:24.620Z,18.90
2018-07-20T01:52:56.191Z,18.82
2018-07-20T01:55:59.337Z,19.21
2018-07-20T01:57:30.907Z,19.31
2018-07-20T01:59:02.479Z,19.43
2018-07-20T02:00:34.055Z,19.68
2018-07-20T02:02:05.724Z,19.61
2018-07-20T02:03:37.202Z,19.59
2018-07-20T02:05:08.768Z,19.68
2018-07-20T02:06:40.345Z,19.68
2018-07-20T02:08:12.011Z,19.69
2018-07-20T02:09:43.507Z,19.44
2018-07-20T02:11:15.054Z,19.78
2018-07-20T02:12:46.628Z,19.88
2018-07-20T02:14:18.198Z,19.96
2018-07-20T02:15:49.770Z,19.77
2018-07-20T02:17:21.342Z,19.62
2018-07-20T02:18:52.914Z,19.73
2018-07-20T02:20:24.486Z,19.80
2018-07-20T02:21:56.063Z,19.78
2018-07-20T02:23:27.633Z,19.81
2018-07-20T02:24:59.552Z,19.61
2018-07-20T02:26:30.874Z,19.44
2018-07-20T02:28:02.346Z,19.44
2018-07-20T02:29:34.092Z,19.43
2018-07-20T02:31:05.491Z,19.59
2018-07-20T02:32:37.162Z,19.47
2018-07-20T02:34:08.687Z,19.41
2018-07-20T02:35:40.205Z,19.10
2018-07-20T02:37:11.779Z,18.95
2018-07-20T02:38:43.367Z,18.92
2018-07-20T02:40:14.923Z,18.88
2018-07-20T02:41:46.494Z,19.11
2018-07-20T02:43:18.066Z,19.33
2018-07-20T02:44:49.987Z,19.43
2018-07-20T02:46:21.211Z,19.11
2018-07-20T02:47:52.781Z,19.06
2018-07-20T02:49:24.352Z,19.04
2018-07-20T02:50:55.924Z,19.02
2018-07-20T02:52:27.496Z,18.98
2018-07-20T02:53:59.067Z,19.02
2018-07-20T02:55:30.643Z,18.90
2018-07-20T02:57:02.211Z,18.72
2018-07-20T02:58:34.973Z,18.67
2018-07-20T03:00:05.407Z,18.45
2018-07-20T03:01:37.043Z,18.39
2018-07-20T03:03:08.749Z,18.48
2018-07-20T03:04:40.214Z,18.50
2018-07-20T03:06:11.642Z,18.10
2018-07-20T03:07:43.226Z,17.79
2018-07-20T03:09:14.794Z,17.58
2018-07-20T03:10:46.395Z,17.22
2018-07-20T03:12:17.931Z,17.06
2018-07-20T03:13:49.502Z,16.81
2018-07-20T03:15:21.324Z,16.70
2018-07-20T03:16:52.648Z,16.64
2018-07-20T03:18:24.217Z,16.46
2018-07-20T03:19:55.788Z,16.39
2018-07-20T03:21:27.461Z,16.39
2018-07-20T03:22:58.930Z,16.34
2018-07-20T03:24:30.501Z,16.17
2018-07-20T03:26:02.076Z,16.14
2018-07-20T03:27:33.644Z,16.04
2018-07-20T03:29:05.215Z,15.97
2018-07-20T03:30:36.787Z,15.89
2018-07-20T03:32:08.360Z,15.82
2018-07-20T03:33:40.030Z,15.67
2018-07-20T03:35:11.500Z,15.68
2018-07-20T03:36:43.071Z,15.69
2018-07-20T03:38:14.642Z,15.64
2018-07-20T03:39:46.363Z,15.71
2018-07-20T03:41:17.783Z,15.69
2018-07-20T03:42:49.354Z,15.69
2018-07-20T03:44:20.935Z,15.62
2018-07-20T03:45:52.746Z,15.69
2018-07-20T03:47:24.067Z,15.65
2018-07-20T03:48:55.694Z,15.62
2018-07-20T03:50:27.209Z,15.57
2018-07-20T03:51:58.779Z,15.64
2018-07-20T03:53:30.352Z,15.60
2018-07-20T03:55:01.920Z,15.59
2018-07-20T03:58:05.161Z,15.51
2018-07-20T03:59:36.631Z,15.59
2018-07-20T04:01:08.205Z,15.56
2018-07-20T04:02:39.772Z,15.53
2018-07-20T04:04:11.445Z,15.54
2018-07-20T04:05:42.914Z,15.44
2018-07-20T04:07:14.484Z,15.51
2018-07-20T04:08:46.055Z,15.46
2018-07-20T04:10:17.667Z,15.38
2018-07-20T04:11:49.196Z,15.43
2018-07-20T04:13:20.765Z,15.43
2018-07-20T04:14:52.336Z,15.50
2018-07-20T04:16:24.007Z,15.39
2018-07-20T04:17:55.477Z,15.38
2018-07-20T04:19:27.075Z,15.69
2018-07-20T04:20:58.617Z,15.83
2018-07-20T04:22:30.188Z,15.86
2018-07-20T04:24:01.758Z,15.76
2018-07-20T04:25:33.328Z,15.67
2018-07-20T04:27:04.899Z,15.71
2018-07-20T04:28:36.468Z,15.93
2018-07-20T04:30:08.039Z,15.87
2018-07-20T04:31:39.618Z,15.96
2018-07-20T04:33:11.179Z,15.78
2018-07-20T04:34:42.851Z,15.72
2018-07-20T04:36:14.321Z,15.57
2018-07-20T04:37:45.890Z,15.50
2018-07-20T04:39:17.467Z,15.43
2018-07-20T04:40:49.031Z,15.43
2018-07-20T04:42:20.601Z,15.47
2018-07-20T04:43:52.190Z,15.76
2018-07-20T04:46:55.313Z,15.97
2018-07-20T04:48:26.883Z,15.86
2018-07-20T04:49:58.483Z,15.82
2018-07-20T04:51:30.023Z,15.74
2018-07-20T04:53:01.693Z,15.65
2018-07-20T04:54:33.163Z,15.59
2018-07-20T04:56:04.733Z,15.97
2018-07-20T04:57:36.303Z,16.41
2018-07-20T04:59:07.873Z,16.49
2018-07-20T05:00:39.443Z,16.35
2018-07-20T05:02:11.013Z,16.08
2018-07-20T05:03:42.651Z,15.83
2018-07-20T05:05:14.257Z,16.00
2018-07-20T05:06:45.726Z,15.84
2018-07-20T05:08:17.294Z,15.57
2018-07-20T05:09:48.864Z,15.60
2018-07-20T05:11:20.555Z,15.62
2018-07-20T05:12:52.004Z,15.49
2018-07-20T05:14:23.574Z,15.83
2018-07-20T05:15:55.144Z,16.53
2018-07-20T05:17:26.714Z,16.73
2018-07-20T05:18:58.285Z,16.89
2018-07-20T05:20:29.855Z,17.06
2018-07-20T05:22:01.424Z,17.22
2018-07-20T05:23:32.995Z,17.14
2018-07-20T05:25:04.566Z,17.31
2018-07-20T05:26:36.134Z,17.44
2018-07-20T05:28:07.707Z,17.59
2018-07-20T05:29:39.380Z,17.55
2018-07-20T05:31:10.852Z,17.52
2018-07-20T05:32:42.559Z,17.54
2018-07-20T05:34:13.986Z,17.31
2018-07-20T05:35:45.655Z,17.55
2018-07-20T05:37:17.124Z,17.56
2018-07-20T05:38:48.696Z,17.72
2018-07-20T05:40:20.265Z,17.66
2018-07-20T05:41:51.836Z,17.66
2018-07-20T05:43:23.406Z,17.48
2018-07-20T05:44:54.976Z,17.64
2018-07-20T05:46:26.547Z,17.71
2018-07-20T05:47:58.217Z,17.33
2018-07-20T05:49:29.690Z,17.36
2018-07-20T05:51:01.262Z,17.58
2018-07-20T05:52:32.828Z,17.62
2018-07-20T05:54:04.399Z,17.59
2018-07-20T05:55:35.969Z,17.54
2018-07-20T05:57:07.539Z,17.33
2018-07-20T05:58:39.109Z,17.04
2018-07-20T06:00:10.681Z,16.58
2018-07-20T06:01:42.251Z,16.33
2018-07-20T06:03:13.821Z,16.02
2018-07-20T06:04:45.391Z,15.89
2018-07-20T06:06:17.062Z,15.60
2018-07-20T06:07:48.532Z,15.56
2018-07-20T06:09:20.104Z,15.43
2018-07-20T06:10:51.674Z,15.38
2018-07-20T06:12:23.244Z,15.47
2018-07-20T06:13:54.814Z,15.56
2018-07-20T06:15:26.384Z,15.82
2018-07-20T06:16:57.954Z,15.80
2018-07-20T06:18:29.775Z,15.82
2018-07-20T06:20:01.095Z,15.68
2018-07-20T06:21:32.668Z,15.54
2018-07-20T06:23:04.237Z,15.86
2018-07-20T06:24:35.911Z,15.93
2018-07-20T06:26:07.375Z,16.14
2018-07-20T06:27:38.945Z,16.43
2018-07-20T06:29:10.516Z,16.58
2018-07-20T06:30:42.085Z,16.76
2018-07-20T06:32:13.654Z,16.81
2018-07-20T06:33:45.225Z,16.83
2018-07-20T06:35:16.796Z,17.04
2018-07-20T06:36:48.469Z,16.78
2018-07-20T06:38:19.934Z,16.94
2018-07-20T06:39:51.504Z,17.15
2018-07-20T06:41:23.074Z,17.36
2018-07-20T06:42:54.744Z,17.48
2018-07-20T06:44:26.216Z,17.58
2018-07-20T06:45:57.783Z,17.37
2018-07-20T06:47:29.357Z,17.71
2018-07-20T06:49:01.175Z,17.66
2018-07-20T06:50:32.497Z,17.70
2018-07-20T06:52:04.065Z,17.79
2018-07-20T06:53:35.636Z,17.68
2018-07-20T06:55:07.208Z,17.48
2018-07-20T06:56:38.775Z,17.56
2018-07-20T06:58:10.345Z,17.72
2018-07-20T06:59:41.915Z,17.28
2018-07-20T07:01:13.586Z,17.52
2018-07-20T07:02:45.055Z,17.86
2018-07-20T07:04:16.627Z,17.55
2018-07-20T07:05:48.198Z,17.78
2018-07-20T07:07:19.766Z,18.02
2018-07-20T07:08:51.337Z,17.84
2018-07-20T07:10:22.907Z,17.90
2018-07-20T07:11:54.512Z,17.75
2018-07-20T07:13:26.047Z,17.79
2018-07-20T07:14:57.688Z,17.92
2018-07-20T07:16:29.188Z,17.96
2018-07-20T07:18:00.759Z,17.82
2018-07-20T07:19:32.429Z,17.81
2018-07-20T07:21:03.899Z,17.74
2018-07-20T07:22:35.470Z,17.74
2018-07-20T07:24:07.040Z,17.78
2018-07-20T07:25:38.610Z,17.96
2018-07-20T07:27:10.180Z,17.95
2018-07-20T07:28:41.752Z,17.93
2018-07-20T07:30:13.321Z,17.95
2018-07-20T07:31:44.892Z,17.87
2018-07-20T07:33:16.462Z,17.77
2018-07-20T07:34:48.035Z,17.93
2018-07-20T07:36:19.603Z,17.87
2018-07-20T07:37:51.374Z,17.95
2018-07-20T07:39:22.744Z,17.90
2018-07-20T07:40:54.314Z,17.82
2018-07-20T07:42:25.886Z,17.95
2018-07-20T07:43:57.556Z,17.86
2018-07-20T07:45:29.026Z,17.99
2018-07-20T07:47:00.596Z,17.87
2018-07-20T07:48:32.169Z,17.92
2018-07-20T07:50:03.738Z,17.81
2018-07-20T07:51:35.307Z,17.75
2018-07-20T07:53:06.880Z,17.77
2018-07-20T07:54:38.449Z,17.84
2018-07-20T07:56:10.120Z,17.74
2018-07-20T07:57:41.590Z,17.79
2018-07-20T07:59:13.160Z,17.71
2018-07-20T08:00:44.730Z,17.77
2018-07-20T08:02:16.301Z,17.78
2018-07-20T08:03:47.872Z,17.79
2018-07-20T08:05:19.443Z,17.92
2018-07-20T08:06:51.040Z,17.75
2018-07-20T08:08:22.683Z,17.79
2018-07-20T08:09:54.190Z,17.81
2018-07-20T08:11:25.725Z,17.74
2018-07-20T08:12:57.297Z,17.81
2018-07-20T08:14:28.964Z,17.96
2018-07-20T08:16:00.449Z,17.79
2018-07-20T08:17:32.006Z,17.86
2018-07-20T08:19:03.618Z,17.66
2018-07-20T08:20:35.411Z,17.84
2018-07-20T08:22:06.721Z,18.03
2018-07-20T08:23:38.286Z,17.92
2018-07-20T08:25:09.856Z,18.05
2018-07-20T08:26:41.456Z,17.95
2018-07-20T08:28:12.998Z,18.05
2018-07-20T08:29:44.572Z,17.92
2018-07-20T08:31:16.139Z,17.81
2018-07-20T08:32:47.863Z,17.97
2018-07-20T08:34:19.279Z,17.77
2018-07-20T08:35:50.851Z,17.75
2018-07-20T08:37:22.420Z,17.75
2018-07-20T08:38:54.091Z,17.72
2018-07-20T08:40:25.579Z,17.81
2018-07-20T08:41:57.136Z,17.81
2018-07-20T08:43:28.702Z,17.75
2018-07-20T08:45:00.275Z,17.82
2018-07-20T08:46:31.890Z,17.77
2018-07-20T08:48:03.414Z,17.89
2018-07-20T08:49:34.983Z,17.81
2018-07-20T08:51:06.905Z,17.72
2018-07-20T08:52:38.124Z,17.58
2018-07-20T08:54:09.722Z,17.52
2018-07-20T08:55:41.265Z,17.43
2018-07-20T08:57:12.836Z,17.44
2018-07-20T08:58:44.406Z,17.36
2018-07-20T09:00:15.978Z,17.22
2018-07-20T09:01:47.548Z,17.59
2018-07-20T09:03:19.118Z,17.84
2018-07-20T09:04:50.688Z,17.86
2018-07-20T09:06:22.258Z,17.59
2018-07-20T09:07:53.828Z,17.54
2018-07-20T09:09:25.649Z,17.62
2018-07-20T09:10:56.972Z,17.30
2018-07-20T09:12:28.540Z,17.37
2018-07-20T09:14:00.111Z,17.34
2018-07-20T09:15:31.680Z,17.43
2018-07-20T09:17:03.250Z,17.54
2018-07-20T09:18:34.821Z,17.49
2018-07-20T09:20:06.390Z,17.38
2018-07-20T09:21:38.212Z,17.31
2018-07-20T09:23:09.532Z,17.44
2018-07-20T09:24:41.101Z,17.58
2018-07-20T09:26:12.673Z,17.56
2018-07-20T09:27:44.342Z,17.31
2018-07-20T09:29:15.813Z,17.37
2018-07-20T09:30:47.383Z,17.43
2018-07-20T09:32:18.953Z,17.26
2018-07-20T09:33:50.524Z,17.28
2018-07-20T09:35:22.122Z,17.25
2018-07-20T09:36:53.665Z,17.23
2018-07-20T09:38:25.234Z,17.18
2018-07-20T09:39:56.904Z,17.23
2018-07-20T09:41:28.374Z,17.26
2018-07-20T09:42:59.948Z,17.33
2018-07-20T09:44:31.587Z,17.30
2018-07-20T09:46:03.191Z,17.46
2018-07-20T09:47:34.655Z,17.46
2018-07-20T09:49:06.277Z,17.49
2018-07-20T09:50:37.796Z,17.55
2018-07-20T09:52:09.616Z,17.70
2018-07-20T09:53:40.936Z,17.62
2018-07-20T09:55:12.507Z,17.58
2018-07-20T09:56:44.077Z,17.51
2018-07-20T09:59:47.243Z,17.55
2018-07-20T10:01:18.787Z,17.54
2018-07-20T10:02:50.357Z,17.75
2018-07-20T10:04:21.931Z,18.08
2018-07-20T10:05:53.599Z,18.41
2018-07-20T10:07:25.069Z,18.54
2018-07-20T10:08:56.670Z,18.63
2018-07-20T10:10:28.238Z,18.76
2018-07-20T10:11:59.935Z,18.73
2018-07-20T10:13:31.353Z,19.06
2018-07-20T10:15:03.464Z,19.10
2018-07-20T10:16:34.496Z,19.13
2018-07-20T10:19:38.050Z,19.68
2018-07-20T10:21:09.215Z,19.84
2018-07-20T10:22:40.785Z,19.92
2018-07-20T10:24:12.358Z,19.81
2018-07-20T10:25:44.076Z,19.95
2018-07-20T10:27:16.042Z,19.99
2018-07-20T10:28:47.380Z,20.05
2018-07-20T10:30:18.649Z,20.28
2018-07-20T10:31:50.223Z,20.31
2018-07-20T10:34:53.370Z,20.38
2018-07-20T10:36:24.944Z,20.59
2018-07-20T10:37:56.519Z,20.97
2018-07-20T10:39:28.295Z,21.12
2018-07-20T10:42:31.242Z,20.89
2018-07-20T10:44:02.916Z,21.09
2018-07-20T10:45:34.393Z,21.37
2018-07-20T10:47:05.966Z,21.32
2018-07-20T10:48:37.541Z,21.42
2018-07-20T10:50:09.117Z,21.82
2018-07-20T10:51:40.894Z,22.14
2018-07-20T10:53:12.571Z,21.79
2018-07-20T10:56:15.420Z,22.17
2018-07-20T10:57:47.199Z,22.31
2018-07-20T10:59:18.578Z,22.46
2018-07-20T11:00:50.149Z,22.65
2018-07-20T11:02:22.366Z,22.88
2018-07-20T11:03:53.303Z,22.42
2018-07-20T11:05:24.880Z,22.94
2018-07-20T11:06:56.457Z,23.01
2018-07-20T11:08:28.036Z,23.22
2018-07-20T11:09:59.615Z,23.19
2018-07-20T11:11:31.192Z,23.05
2018-07-20T11:13:02.768Z,22.82
2018-07-20T11:14:34.446Z,22.28
2018-07-20T11:16:05.924Z,22.22
2018-07-20T11:17:37.805Z,21.83
2018-07-20T11:19:09.081Z,21.77
2018-07-20T11:22:12.640Z,22.17
2018-07-20T11:23:43.814Z,22.31
2018-07-20T11:25:15.400Z,22.57
2018-07-20T11:26:46.970Z,22.35
2018-07-20T11:29:50.126Z,22.55
2018-07-20T11:32:53.282Z,22.64
2018-07-20T11:34:25.064Z,22.70
2018-07-20T11:37:28.319Z,23.53
2018-07-20T11:38:59.799Z,23.38
2018-07-20T11:40:31.725Z,23.17
2018-07-20T11:43:34.639Z,22.73
2018-07-20T11:45:05.911Z,23.16
2018-07-20T11:46:38.029Z,23.46
2018-07-20T11:48:09.070Z,23.80
2018-07-20T11:49:40.648Z,23.94
2018-07-20T11:51:12.228Z,24.25
2018-07-20T11:54:15.382Z,23.63
2018-07-20T11:55:47.146Z,23.05
2018-07-20T11:57:18.542Z,23.33
2018-07-20T12:00:23.289Z,23.95
2018-07-20T12:01:53.303Z,23.94
2018-07-20T12:03:26.997Z,24.09
2018-07-20T12:04:57.354Z,24.09
2018-07-20T12:06:28.059Z,23.94
2018-07-20T12:07:59.629Z,23.36
2018-07-20T12:09:31.251Z,23.32
2018-07-20T12:11:02.867Z,24.34
2018-07-20T12:12:34.543Z,24.64
2018-07-20T12:14:06.075Z,24.84
2018-07-20T12:15:37.496Z,24.40
2018-07-20T12:17:09.606Z,24.62
2018-07-20T12:18:40.866Z,24.40
2018-07-20T12:20:12.239Z,24.88
2018-07-20T12:23:15.399Z,24.76
2018-07-20T12:24:47.486Z,25.28
2018-07-20T12:26:18.865Z,25.30
2018-07-20T12:27:50.345Z,25.20
2018-07-20T12:29:21.722Z,25.08
2018-07-20T12:30:53.332Z,24.65
2018-07-20T12:35:28.148Z,24.71
2018-07-20T12:36:59.633Z,24.43
2018-07-20T12:38:31.234Z,24.65
2018-07-20T12:44:37.763Z,24.80
2018-07-20T12:46:09.953Z,25.00
2018-07-20T12:49:12.809Z,25.13
2018-07-20T12:50:44.264Z,25.06
2018-07-20T12:52:15.444Z,25.03
2018-07-20T12:53:47.128Z,25.42
2018-07-20T12:55:18.605Z,25.99
2018-07-20T12:56:50.222Z,25.94
2018-07-20T12:58:22.131Z,25.76
2018-07-20T12:59:53.349Z,25.72
2018-07-20T13:02:56.515Z,25.98
2018-07-20T13:04:28.674Z,25.58
2018-07-20T13:05:59.678Z,25.73
2018-07-20T13:07:31.391Z,25.58
2018-07-20T13:09:04.105Z,25.83
2018-07-20T13:12:06.089Z,26.26
2018-07-20T13:15:09.472Z,26.44
2018-07-20T13:16:40.750Z,26.50
2018-07-20T13:18:12.435Z,26.77
2018-07-20T13:19:44.227Z,27.09
2018-07-20T13:21:15.980Z,26.66
2018-07-20T13:22:47.607Z,26.76
2018-07-20T13:24:19.212Z,27.03
2018-07-20T13:25:50.501Z,26.84
2018-07-20T13:27:22.127Z,26.84
2018-07-20T13:30:25.594Z,26.29
2018-07-20T13:31:56.572Z,26.36
2018-07-20T13:33:28.357Z,26.73
2018-07-20T13:34:59.761Z,27.06
2018-07-20T13:39:35.423Z,27.67
2018-07-20T13:41:06.069Z,27.40
2018-07-20T13:45:41.119Z,27.62
2018-07-20T13:47:13.132Z,27.87
2018-07-20T13:48:44.286Z,27.37
2018-07-20T13:50:15.567Z,27.92
2018-07-20T13:51:47.469Z,27.37
2018-07-20T13:53:18.731Z,27.74
2018-07-20T13:54:50.314Z,28.21
2018-07-20T13:56:22.425Z,28.22
2018-07-20T13:57:55.430Z,27.37
2018-07-20T14:00:56.651Z,27.22
2018-07-20T14:04:00.135Z,26.89
2018-07-20T14:05:31.927Z,26.55
2018-07-20T14:11:37.905Z,27.03
2018-07-20T14:14:40.941Z,27.49
2018-07-20T14:16:12.682Z,27.25
2018-07-20T14:19:15.745Z,27.74
2018-07-20T14:20:47.228Z,28.73
2018-07-20T14:23:50.394Z,27.59
2018-07-20T14:25:21.976Z,28.52
2018-07-20T14:26:53.610Z,27.79
2018-07-20T14:28:26.477Z,27.81
2018-07-20T14:29:56.728Z,27.37
2018-07-20T14:31:28.591Z,27.22
2018-07-20T14:33:00.200Z,27.03
2018-07-20T14:34:31.479Z,27.18
2018-07-20T14:36:03.066Z,27.75
2018-07-20T14:40:38.220Z,28.04
2018-07-20T14:42:09.399Z,28.30
2018-07-20T14:43:40.980Z,28.11
2018-07-20T14:45:12.766Z,28.83
2018-07-20T14:48:15.733Z,28.29
2018-07-20T14:49:48.024Z,28.66
2018-07-20T14:51:18.912Z,28.00
2018-07-20T14:52:50.787Z,28.19
2018-07-20T14:54:22.230Z,27.97
2018-07-20T14:55:53.845Z,28.15
2018-07-20T14:58:57.055Z,27.97
2018-07-20T15:00:28.503Z,28.41
2018-07-20T15:02:00.061Z,28.93
2018-07-20T15:03:31.641Z,28.78
2018-07-20T15:05:03.227Z,28.83
2018-07-20T15:06:34.810Z,29.06
2018-07-20T15:08:06.393Z,28.70
2018-07-20T15:09:38.180Z,28.52
2018-07-20T15:11:10.138Z,28.37
2018-07-20T15:12:41.450Z,28.89
2018-07-20T15:14:12.660Z,28.12
2018-07-20T15:15:44.450Z,27.92
2018-07-20T15:17:15.830Z,28.03
2018-07-20T15:24:54.904Z,28.80
2018-07-20T15:26:25.658Z,28.74
2018-07-20T15:27:57.223Z,29.11
2018-07-20T15:29:29.465Z,28.90
2018-07-20T15:31:00.291Z,29.42
2018-07-20T15:34:03.462Z,29.34
2018-07-20T15:35:34.841Z,28.92
2018-07-20T15:37:06.628Z,28.37
2018-07-20T15:38:38.214Z,28.73
2018-07-20T15:40:09.842Z,29.16
2018-07-20T15:41:41.179Z,29.33
2018-07-20T15:43:12.865Z,28.93
2018-07-20T15:44:44.349Z,29.05
2018-07-20T15:46:16.097Z,29.43
2018-07-20T15:47:47.518Z,28.96
2018-07-20T15:49:20.037Z,29.28
2018-07-20T15:50:50.692Z,28.86
2018-07-20T15:55:25.464Z,28.98
2018-07-20T15:56:57.559Z,29.51
2018-07-20T16:00:00.518Z,29.09
2018-07-20T16:01:31.880Z,29.73
2018-07-20T16:04:36.085Z,30.46
2018-07-20T16:07:38.197Z,29.73
2018-07-20T16:09:09.791Z,29.53
2018-07-20T16:10:41.287Z,29.95
2018-07-20T16:12:13.178Z,29.76
2018-07-20T16:13:44.558Z,30.20
2018-07-20T16:15:16.537Z,29.85
2018-07-20T16:18:20.122Z,30.19
2018-07-20T16:19:50.989Z,30.82
2018-07-20T16:22:54.272Z,30.00
2018-07-20T16:24:25.608Z,29.41
2018-07-20T16:25:57.332Z,29.63
2018-07-20T16:27:28.753Z,30.02
2018-07-20T16:29:00.346Z,30.46
2018-07-20T16:30:32.137Z,29.82
2018-07-20T16:32:03.539Z,30.49
2018-07-20T16:33:35.384Z,30.31
2018-07-20T16:35:06.678Z,30.08
2018-07-20T16:36:38.266Z,29.98
2018-07-20T16:38:10.059Z,30.04
2018-07-20T16:39:41.732Z,30.00
2018-07-20T16:41:13.540Z,30.10
2018-07-20T16:42:44.966Z,30.49
2018-07-20T16:44:16.190Z,30.23
2018-07-20T16:45:47.780Z,30.34
2018-07-20T16:48:50.912Z,31.01
2018-07-20T16:50:22.499Z,30.60
2018-07-20T16:51:54.086Z,30.47
2018-07-20T16:54:57.265Z,31.36
2018-07-20T16:56:29.593Z,31.38
2018-07-20T17:01:03.591Z,31.17
2018-07-20T17:02:35.176Z,31.13
2018-07-20T17:05:44.621Z,31.35
2018-07-20T17:07:10.237Z,31.17
2018-07-20T17:08:41.830Z,31.56
2018-07-20T17:10:13.607Z,31.38
2018-07-20T17:11:45.220Z,30.70
2018-07-20T17:13:16.275Z,30.89
2018-07-20T17:14:48.160Z,30.73
2018-07-20T17:16:19.442Z,30.65
2018-07-20T17:17:51.555Z,30.98
2018-07-20T17:19:22.688Z,31.23
2018-07-20T17:20:54.196Z,30.51
2018-07-20T17:22:25.983Z,30.65
2018-07-20T17:23:57.369Z,30.46
2018-07-20T17:25:29.153Z,30.53
2018-07-20T17:27:00.535Z,30.75
2018-07-20T17:28:32.120Z,30.82
2018-07-20T17:30:03.705Z,31.39
2018-07-20T17:31:35.289Z,31.58
2018-07-20T17:33:07.176Z,31.38
2018-07-20T17:34:38.458Z,30.76
2018-07-20T17:39:13.211Z,31.63
2018-07-20T17:40:46.213Z,30.60
2018-07-20T17:42:16.380Z,31.09
2018-07-20T17:43:48.110Z,31.16
2018-07-20T17:45:20.080Z,31.72
2018-07-20T17:46:51.436Z,32.74
2018-07-20T17:48:22.787Z,32.01
2018-07-20T17:49:54.301Z,31.29
2018-07-20T17:52:57.646Z,31.54
2018-07-20T17:54:29.662Z,31.86
2018-07-20T17:56:00.691Z,31.41
2018-07-20T17:57:32.224Z,31.66
2018-07-20T17:59:03.966Z,31.47
2018-07-20T18:02:06.977Z,31.04
2018-07-20T18:03:38.574Z,31.28
2018-07-20T18:05:10.166Z,31.43
2018-07-20T18:06:41.736Z,31.57
2018-07-20T18:08:13.314Z,30.47
2018-07-20T18:09:45.202Z,31.19
2018-07-20T18:11:16.584Z,30.67
2018-07-20T18:12:48.066Z,30.95
2018-07-20T18:14:20.786Z,30.94
2018-07-20T18:15:51.337Z,31.32
2018-07-20T18:17:22.834Z,31.17
2018-07-20T18:18:54.401Z,31.43
2018-07-20T18:21:57.568Z,31.72
2018-07-20T18:23:29.153Z,31.50
2018-07-20T18:25:00.754Z,31.26
2018-07-20T18:26:32.319Z,30.65
2018-07-20T18:29:36.116Z,31.35
2018-07-20T18:31:07.074Z,31.91
2018-07-20T18:34:10.310Z,31.28
2018-07-20T18:35:41.821Z,30.98
2018-07-20T18:37:13.424Z,30.77
2018-07-20T18:38:44.987Z,31.17
2018-07-20T18:41:48.154Z,30.49
2018-07-20T18:43:19.740Z,30.23
2018-07-20T18:44:52.234Z,31.20
2018-07-20T18:46:22.904Z,31.62
2018-07-20T18:47:54.589Z,32.30
2018-07-20T18:49:27.106Z,31.01
2018-07-20T18:50:57.654Z,31.09
2018-07-20T18:52:29.673Z,30.23
2018-07-20T18:54:01.026Z,30.27
2018-07-20T18:55:32.428Z,30.23
2018-07-20T18:57:03.986Z,30.19
2018-07-20T18:58:35.569Z,29.97
2018-07-20T19:00:07.157Z,30.29
2018-07-20T19:01:38.752Z,30.94
2018-07-20T19:03:10.620Z,31.09
2018-07-20T19:04:41.900Z,30.46
2018-07-20T19:06:13.584Z,30.31
2018-07-20T19:07:45.131Z,30.43
2018-07-20T19:09:16.683Z,30.07
2018-07-20T19:10:48.248Z,29.87
2018-07-20T19:12:20.016Z,29.52
2018-07-20T19:13:51.395Z,30.05
2018-07-20T19:15:22.976Z,30.75
2018-07-20T19:16:54.562Z,29.68
2018-07-20T19:18:26.141Z,29.31
2018-07-20T19:19:57.723Z,29.49
2018-07-20T19:21:29.304Z,30.26
2018-07-20T19:23:00.888Z,29.71
2018-07-20T19:24:32.568Z,29.63
2018-07-20T19:26:04.050Z,29.80
2018-07-20T19:27:35.635Z,30.99
2018-07-20T19:29:07.214Z,31.39
2018-07-20T19:30:38.797Z,30.55
2018-07-20T19:32:10.377Z,30.75
2018-07-20T19:33:41.984Z,30.05
2018-07-20T19:35:13.540Z,29.42
2018-07-20T19:36:45.122Z,29.37
2018-07-20T19:38:16.705Z,28.86
2018-07-20T19:39:48.304Z,29.42
2018-07-20T19:41:19.868Z,29.70
2018-07-20T19:42:51.549Z,29.71
2018-07-20T19:44:23.029Z,29.58
2018-07-20T19:45:54.645Z,29.76
2018-07-20T19:47:26.190Z,29.90
2018-07-20T19:48:57.836Z,30.04
2018-07-20T19:50:29.355Z,30.08
2018-07-20T19:52:00.935Z,29.95
2018-07-20T19:53:32.522Z,29.55
2018-07-20T19:55:04.095Z,29.52
2018-07-20T19:58:07.258Z,29.45
2018-07-20T19:59:38.838Z,29.60
2018-07-20T20:01:10.872Z,29.67
2018-07-20T20:02:41.999Z,29.55
2018-07-20T20:04:13.610Z,29.21
2018-07-20T20:05:45.162Z,28.95
2018-07-20T20:07:16.987Z,28.90
2018-07-20T20:08:48.322Z,28.89
2018-07-20T20:10:19.901Z,28.74
2018-07-20T20:11:51.481Z,28.76
2018-07-20T20:13:23.061Z,28.44
2018-07-20T20:14:54.641Z,27.96
2018-07-20T20:16:26.222Z,28.03
2018-07-20T20:17:57.802Z,27.67
2018-07-20T20:19:30.012Z,27.41
2018-07-20T20:21:00.960Z,27.22
2018-07-20T20:22:32.540Z,27.12
2018-07-20T20:24:04.119Z,27.03
2018-07-20T20:25:35.698Z,26.85
2018-07-20T20:27:07.277Z,26.76
2018-07-20T20:28:38.856Z,26.62
2018-07-20T20:30:10.436Z,26.37
2018-07-20T20:31:42.014Z,26.26
2018-07-20T20:33:13.795Z,26.05
2018-07-20T20:34:45.171Z,25.97
2018-07-20T20:36:16.749Z,25.97
2018-07-20T20:37:48.734Z,25.87
2018-07-20T20:40:51.484Z,25.52
2018-07-20T20:42:23.062Z,25.45
2018-07-20T20:43:54.665Z,25.21
2018-07-20T20:45:26.218Z,25.14
2018-07-20T20:46:57.800Z,25.09
2018-07-20T20:48:29.373Z,24.96
2018-07-20T20:50:00.956Z,24.91
2018-07-20T20:51:32.537Z,24.80
2018-07-20T20:53:04.109Z,24.78
2018-07-20T20:54:35.683Z,24.76
2018-07-20T20:56:07.360Z,24.65
2018-07-20T20:57:38.838Z,24.62
2018-07-20T20:59:10.440Z,24.31
2018-07-20T21:00:41.992Z,24.24
2018-07-20T21:02:13.569Z,24.13
2018-07-20T21:03:45.148Z,23.87
2018-07-20T21:05:16.723Z,23.83
2018-07-20T21:06:48.300Z,23.79
2018-07-20T21:08:19.881Z,23.63
2018-07-20T21:09:51.457Z,23.38
2018-07-20T21:11:23.030Z,23.27
2018-07-20T21:12:54.759Z,23.10
2018-07-20T21:14:26.283Z,23.00
2018-07-20T21:15:57.762Z,22.92
2018-07-20T21:17:29.337Z,22.70
2018-07-20T21:19:00.917Z,22.51
2018-07-20T21:20:32.491Z,22.37
2018-07-20T21:22:04.067Z,22.36
2018-07-20T21:23:35.644Z,22.18